sensor_id;sensor_type;location;lat;lon;timestamp;P1;durP1;ratioP1;P2;durP2;ratioP2
17832;SDS011;9041;49.718;21.798;2022-12-28T00:02:26;21.73;;;8.03;;
17832;SDS011;9041;49.718;21.798;2022-12-28T00:04:53;22.70;;;8.10;;
17832;SDS011;9041;49.718;21.798;2022-12-28T00:07:19;21.77;;;8.33;;
17832;SDS011;9041;49.718;21.798;2022-12-28T00:09:46;23.67;;;8.63;;
17832;SDS011;9041;49.718;21.798;2022-12-28T00:12:14;18.53;;;8.33;;
17832;SDS011;9041;49.718;21.798;2022-12-28T00:14:40;17.37;;;7.77;;
17832;SDS011;9041;49.718;21.798;2022-12-28T00:17:07;14.47;;;6.97;;
17832;SDS011;9041;49.718;21.798;2022-12-28T00:19:34;13.50;;;6.73;;
17832;SDS011;9041;49.718;21.798;2022-12-28T00:22:00;16.60;;;7.03;;
17832;SDS011;9041;49.718;21.798;2022-12-28T00:24:27;14.10;;;6.37;;
17832;SDS011;9041;49.718;21.798;2022-12-28T00:26:54;17.43;;;6.97;;
17832;SDS011;9041;49.718;21.798;2022-12-28T00:29:22;19.47;;;8.10;;
17832;SDS011;9041;49.718;21.798;2022-12-28T00:31:49;19.77;;;7.73;;
17832;SDS011;9041;49.718;21.798;2022-12-28T00:34:15;21.20;;;8.47;;
17832;SDS011;9041;49.718;21.798;2022-12-28T00:36:42;19.10;;;8.00;;
17832;SDS011;9041;49.718;21.798;2022-12-28T00:39:08;25.83;;;10.77;;
17832;SDS011;9041;49.718;21.798;2022-12-28T00:41:35;24.30;;;9.87;;
17832;SDS011;9041;49.718;21.798;2022-12-28T00:44:02;22.53;;;8.93;;
17832;SDS011;9041;49.718;21.798;2022-12-28T00:46:30;23.90;;;9.77;;
17832;SDS011;9041;49.718;21.798;2022-12-28T00:48:57;21.23;;;8.07;;
17832;SDS011;9041;49.718;21.798;2022-12-28T00:51:23;24.43;;;10.07;;
17832;SDS011;9041;49.718;21.798;2022-12-28T00:53:50;23.77;;;10.20;;
17832;SDS011;9041;49.718;21.798;2022-12-28T00:56:17;26.60;;;10.30;;
17832;SDS011;9041;49.718;21.798;2022-12-28T00:58:44;27.83;;;10.97;;
17832;SDS011;9041;49.718;21.798;2022-12-28T01:01:12;22.97;;;9.57;;
17832;SDS011;9041;49.718;21.798;2022-12-28T01:03:41;26.23;;;10.30;;
17832;SDS011;9041;49.718;21.798;2022-12-28T01:06:08;31.13;;;11.53;;
17832;SDS011;9041;49.718;21.798;2022-12-28T01:08:37;29.07;;;10.87;;
17832;SDS011;9041;49.718;21.798;2022-12-28T01:11:07;25.47;;;10.73;;
17832;SDS011;9041;49.718;21.798;2022-12-28T01:13:34;28.27;;;10.70;;
17832;SDS011;9041;49.718;21.798;2022-12-28T01:16:08;29.93;;;10.93;;
17832;SDS011;9041;49.718;21.798;2022-12-28T01:18:35;22.23;;;9.27;;
17832;SDS011;9041;49.718;21.798;2022-12-28T01:21:08;27.23;;;9.40;;
17832;SDS011;9041;49.718;21.798;2022-12-28T01:23:35;23.87;;;9.53;;
17832;SDS011;9041;49.718;21.798;2022-12-28T01:26:02;22.27;;;9.00;;
17832;SDS011;9041;49.718;21.798;2022-12-28T01:28:29;22.13;;;10.00;;
17832;SDS011;9041;49.718;21.798;2022-12-28T01:30:56;18.53;;;8.13;;
17832;SDS011;9041;49.718;21.798;2022-12-28T01:33:28;21.67;;;8.60;;
17832;SDS011;9041;49.718;21.798;2022-12-28T01:35:55;20.77;;;8.27;;
17832;SDS011;9041;49.718;21.798;2022-12-28T01:38:23;17.73;;;8.13;;
17832;SDS011;9041;49.718;21.798;2022-12-28T01:40:50;15.80;;;7.47;;
17832;SDS011;9041;49.718;21.798;2022-12-28T01:43:17;18.83;;;7.83;;
17832;SDS011;9041;49.718;21.798;2022-12-28T01:45:46;22.30;;;7.77;;
17832;SDS011;9041;49.718;21.798;2022-12-28T01:48:16;12.83;;;6.70;;
17832;SDS011;9041;49.718;21.798;2022-12-28T01:50:46;17.87;;;7.37;;
17832;SDS011;9041;49.718;21.798;2022-12-28T01:53:13;19.13;;;7.67;;
17832;SDS011;9041;49.718;21.798;2022-12-28T01:55:42;12.93;;;6.37;;
17832;SDS011;9041;49.718;21.798;2022-12-28T01:58:09;14.60;;;6.70;;
17832;SDS011;9041;49.718;21.798;2022-12-28T02:00:38;14.17;;;6.23;;
17832;SDS011;9041;49.718;21.798;2022-12-28T02:03:06;20.13;;;7.27;;
17832;SDS011;9041;49.718;21.798;2022-12-28T02:05:38;12.77;;;6.47;;
17832;SDS011;9041;49.718;21.798;2022-12-28T02:08:07;17.17;;;6.63;;
17832;SDS011;9041;49.718;21.798;2022-12-28T02:10:36;16.60;;;6.27;;
17832;SDS011;9041;49.718;21.798;2022-12-28T02:13:04;13.07;;;6.07;;
17832;SDS011;9041;49.718;21.798;2022-12-28T02:15:31;11.80;;;5.63;;
17832;SDS011;9041;49.718;21.798;2022-12-28T02:17:57;13.90;;;5.87;;
17832;SDS011;9041;49.718;21.798;2022-12-28T02:20:27;11.37;;;5.63;;
17832;SDS011;9041;49.718;21.798;2022-12-28T02:29:07;11.30;;;6.07;;
17832;SDS011;9041;49.718;21.798;2022-12-28T02:31:41;17.37;;;6.90;;
17832;SDS011;9041;49.718;21.798;2022-12-28T02:34:11;13.90;;;6.40;;
17832;SDS011;9041;49.718;21.798;2022-12-28T02:36:41;13.60;;;5.60;;
17832;SDS011;9041;49.718;21.798;2022-12-28T02:39:13;13.87;;;6.40;;
17832;SDS011;9041;49.718;21.798;2022-12-28T02:42:00;12.80;;;5.90;;
17832;SDS011;9041;49.718;21.798;2022-12-28T02:44:28;13.83;;;6.87;;
17832;SDS011;9041;49.718;21.798;2022-12-28T02:47:13;16.83;;;6.37;;
17832;SDS011;9041;49.718;21.798;2022-12-28T02:49:58;15.03;;;6.10;;
17832;SDS011;9041;49.718;21.798;2022-12-28T02:52:35;14.20;;;6.50;;
17832;SDS011;9041;49.718;21.798;2022-12-28T02:55:25;23.50;;;7.73;;
17832;SDS011;9041;49.718;21.798;2022-12-28T03:01:11;18.40;;;7.47;;
17832;SDS011;9041;49.718;21.798;2022-12-28T03:03:47;15.90;;;6.93;;
17832;SDS011;9041;49.718;21.798;2022-12-28T03:06:23;12.50;;;6.90;;
17832;SDS011;9041;49.718;21.798;2022-12-28T03:09:12;15.63;;;7.37;;
17832;SDS011;9041;49.718;21.798;2022-12-28T03:11:42;18.73;;;6.53;;
17832;SDS011;9041;49.718;21.798;2022-12-28T03:14:13;14.83;;;6.13;;
17832;SDS011;9041;49.718;21.798;2022-12-28T03:16:44;17.53;;;7.70;;
17832;SDS011;9041;49.718;21.798;2022-12-28T03:19:40;12.70;;;6.77;;
17832;SDS011;9041;49.718;21.798;2022-12-28T03:22:26;13.73;;;6.57;;
17832;SDS011;9041;49.718;21.798;2022-12-28T03:25:13;15.00;;;6.73;;
17832;SDS011;9041;49.718;21.798;2022-12-28T03:27:59;12.30;;;6.27;;
17832;SDS011;9041;49.718;21.798;2022-12-28T03:30:45;15.50;;;5.60;;
17832;SDS011;9041;49.718;21.798;2022-12-28T03:33:33;10.97;;;5.87;;
17832;SDS011;9041;49.718;21.798;2022-12-28T03:36:01;12.17;;;5.70;;
17832;SDS011;9041;49.718;21.798;2022-12-28T03:38:31;13.93;;;6.17;;
17832;SDS011;9041;49.718;21.798;2022-12-28T03:41:05;17.13;;;6.77;;
17832;SDS011;9041;49.718;21.798;2022-12-28T03:43:34;14.57;;;6.77;;
17832;SDS011;9041;49.718;21.798;2022-12-28T03:46:07;16.07;;;6.67;;
17832;SDS011;9041;49.718;21.798;2022-12-28T03:48:37;18.87;;;6.27;;
17832;SDS011;9041;49.718;21.798;2022-12-28T03:51:05;11.40;;;5.83;;
17832;SDS011;9041;49.718;21.798;2022-12-28T03:53:35;17.67;;;8.20;;
17832;SDS011;9041;49.718;21.798;2022-12-28T03:56:04;15.40;;;6.63;;
17832;SDS011;9041;49.718;21.798;2022-12-28T03:58:32;15.30;;;6.23;;
17832;SDS011;9041;49.718;21.798;2022-12-28T04:00:58;11.30;;;5.40;;
17832;SDS011;9041;49.718;21.798;2022-12-28T04:03:25;14.97;;;5.67;;
17832;SDS011;9041;49.718;21.798;2022-12-28T04:05:53;14.13;;;6.00;;
17832;SDS011;9041;49.718;21.798;2022-12-28T04:08:20;11.47;;;6.00;;
17832;SDS011;9041;49.718;21.798;2022-12-28T04:10:47;13.10;;;5.53;;
17832;SDS011;9041;49.718;21.798;2022-12-28T04:13:13;14.07;;;5.60;;
17832;SDS011;9041;49.718;21.798;2022-12-28T04:15:40;14.57;;;5.63;;
17832;SDS011;9041;49.718;21.798;2022-12-28T04:18:07;8.80;;;5.17;;
17832;SDS011;9041;49.718;21.798;2022-12-28T04:20:34;11.60;;;5.37;;
17832;SDS011;9041;49.718;21.798;2022-12-28T04:23:02;13.97;;;5.93;;
17832;SDS011;9041;49.718;21.798;2022-12-28T04:25:28;11.50;;;5.57;;
17832;SDS011;9041;49.718;21.798;2022-12-28T04:27:55;12.13;;;5.40;;
17832;SDS011;9041;49.718;21.798;2022-12-28T04:30:21;11.27;;;5.43;;
17832;SDS011;9041;49.718;21.798;2022-12-28T04:32:48;10.87;;;5.60;;
17832;SDS011;9041;49.718;21.798;2022-12-28T04:35:15;12.43;;;5.73;;
17832;SDS011;9041;49.718;21.798;2022-12-28T04:37:41;10.60;;;5.40;;
17832;SDS011;9041;49.718;21.798;2022-12-28T04:40:10;10.77;;;5.03;;
17832;SDS011;9041;49.718;21.798;2022-12-28T04:42:37;10.70;;;4.97;;
17832;SDS011;9041;49.718;21.798;2022-12-28T04:45:04;14.63;;;4.53;;
17832;SDS011;9041;49.718;21.798;2022-12-28T04:47:31;10.40;;;4.43;;
17832;SDS011;9041;49.718;21.798;2022-12-28T04:49:58;9.60;;;4.80;;
17832;SDS011;9041;49.718;21.798;2022-12-28T04:52:24;9.20;;;4.67;;
17832;SDS011;9041;49.718;21.798;2022-12-28T04:54:51;11.17;;;4.60;;
17832;SDS011;9041;49.718;21.798;2022-12-28T04:57:19;11.57;;;4.77;;
17832;SDS011;9041;49.718;21.798;2022-12-28T04:59:46;12.17;;;4.50;;
17832;SDS011;9041;49.718;21.798;2022-12-28T05:02:12;8.27;;;4.40;;
17832;SDS011;9041;49.718;21.798;2022-12-28T05:04:39;13.10;;;4.50;;
17832;SDS011;9041;49.718;21.798;2022-12-28T05:07:06;9.47;;;4.57;;
17832;SDS011;9041;49.718;21.798;2022-12-28T05:09:32;9.20;;;4.40;;
17832;SDS011;9041;49.718;21.798;2022-12-28T05:12:00;12.23;;;4.70;;
17832;SDS011;9041;49.718;21.798;2022-12-28T05:14:28;11.37;;;4.50;;
17832;SDS011;9041;49.718;21.798;2022-12-28T05:16:55;9.57;;;4.60;;
17832;SDS011;9041;49.718;21.798;2022-12-28T05:19:22;10.77;;;5.13;;
17832;SDS011;9041;49.718;21.798;2022-12-28T05:21:48;10.67;;;4.70;;
17832;SDS011;9041;49.718;21.798;2022-12-28T05:24:15;9.10;;;4.47;;
17832;SDS011;9041;49.718;21.798;2022-12-28T05:26:41;9.57;;;4.30;;
17832;SDS011;9041;49.718;21.798;2022-12-28T05:29:08;10.37;;;4.67;;
17832;SDS011;9041;49.718;21.798;2022-12-28T05:31:36;8.33;;;4.20;;
17832;SDS011;9041;49.718;21.798;2022-12-28T05:34:02;8.03;;;4.23;;
17832;SDS011;9041;49.718;21.798;2022-12-28T05:36:29;9.03;;;4.10;;
17832;SDS011;9041;49.718;21.798;2022-12-28T05:39:01;10.10;;;4.07;;
17832;SDS011;9041;49.718;21.798;2022-12-28T05:41:28;11.83;;;4.10;;
17832;SDS011;9041;49.718;21.798;2022-12-28T05:43:55;12.43;;;4.30;;
17832;SDS011;9041;49.718;21.798;2022-12-28T05:46:24;7.77;;;3.90;;
17832;SDS011;9041;49.718;21.798;2022-12-28T05:48:53;8.73;;;4.07;;
17832;SDS011;9041;49.718;21.798;2022-12-28T05:51:20;8.63;;;4.27;;
17832;SDS011;9041;49.718;21.798;2022-12-28T05:53:49;11.90;;;4.63;;
17832;SDS011;9041;49.718;21.798;2022-12-28T05:56:16;8.87;;;4.37;;
17832;SDS011;9041;49.718;21.798;2022-12-28T05:58:45;7.40;;;4.33;;
17832;SDS011;9041;49.718;21.798;2022-12-28T06:01:17;11.23;;;5.00;;
17832;SDS011;9041;49.718;21.798;2022-12-28T06:03:45;9.27;;;4.63;;
17832;SDS011;9041;49.718;21.798;2022-12-28T06:06:15;7.77;;;4.30;;
17832;SDS011;9041;49.718;21.798;2022-12-28T06:08:43;7.07;;;4.20;;
17832;SDS011;9041;49.718;21.798;2022-12-28T06:11:11;8.83;;;4.37;;
17832;SDS011;9041;49.718;21.798;2022-12-28T06:13:38;15.93;;;4.50;;
17832;SDS011;9041;49.718;21.798;2022-12-28T06:16:06;12.07;;;5.70;;
17832;SDS011;9041;49.718;21.798;2022-12-28T06:18:34;8.73;;;4.73;;
17832;SDS011;9041;49.718;21.798;2022-12-28T06:21:03;14.23;;;5.30;;
17832;SDS011;9041;49.718;21.798;2022-12-28T06:23:32;10.90;;;5.03;;
17832;SDS011;9041;49.718;21.798;2022-12-28T06:26:00;10.97;;;4.93;;
17832;SDS011;9041;49.718;21.798;2022-12-28T06:28:27;11.03;;;5.57;;
17832;SDS011;9041;49.718;21.798;2022-12-28T06:31:00;8.73;;;3.80;;
17832;SDS011;9041;49.718;21.798;2022-12-28T06:33:27;10.77;;;4.57;;
17832;SDS011;9041;49.718;21.798;2022-12-28T06:35:54;10.10;;;5.30;;
17832;SDS011;9041;49.718;21.798;2022-12-28T06:38:20;7.83;;;4.40;;
17832;SDS011;9041;49.718;21.798;2022-12-28T06:40:48;8.00;;;4.50;;
17832;SDS011;9041;49.718;21.798;2022-12-28T06:43:15;7.20;;;3.83;;
17832;SDS011;9041;49.718;21.798;2022-12-28T06:45:42;9.37;;;4.87;;
17832;SDS011;9041;49.718;21.798;2022-12-28T06:48:09;11.00;;;4.93;;
17832;SDS011;9041;49.718;21.798;2022-12-28T06:50:35;12.10;;;4.67;;
17832;SDS011;9041;49.718;21.798;2022-12-28T06:53:02;11.00;;;4.60;;
17832;SDS011;9041;49.718;21.798;2022-12-28T06:55:29;8.13;;;4.70;;
17832;SDS011;9041;49.718;21.798;2022-12-28T06:57:57;10.77;;;4.70;;
17832;SDS011;9041;49.718;21.798;2022-12-28T07:00:23;9.83;;;4.97;;
17832;SDS011;9041;49.718;21.798;2022-12-28T07:02:55;12.67;;;5.50;;
17832;SDS011;9041;49.718;21.798;2022-12-28T07:05:22;14.10;;;6.20;;
17832;SDS011;9041;49.718;21.798;2022-12-28T07:07:49;19.97;;;7.97;;
17832;SDS011;9041;49.718;21.798;2022-12-28T07:10:16;19.53;;;8.43;;
17832;SDS011;9041;49.718;21.798;2022-12-28T07:12:42;30.23;;;11.77;;
17832;SDS011;9041;49.718;21.798;2022-12-28T07:15:11;32.43;;;13.70;;
17832;SDS011;9041;49.718;21.798;2022-12-28T07:17:38;36.07;;;14.17;;
17832;SDS011;9041;49.718;21.798;2022-12-28T07:20:05;18.13;;;8.77;;
17832;SDS011;9041;49.718;21.798;2022-12-28T07:22:32;33.60;;;14.00;;
17832;SDS011;9041;49.718;21.798;2022-12-28T07:24:59;26.20;;;10.33;;
17832;SDS011;9041;49.718;21.798;2022-12-28T07:27:26;37.77;;;13.10;;
17832;SDS011;9041;49.718;21.798;2022-12-28T07:29:52;21.43;;;9.00;;
17832;SDS011;9041;49.718;21.798;2022-12-28T07:32:20;24.10;;;8.83;;
17832;SDS011;9041;49.718;21.798;2022-12-28T07:34:47;22.03;;;9.03;;
17832;SDS011;9041;49.718;21.798;2022-12-28T07:37:14;22.23;;;9.13;;
17832;SDS011;9041;49.718;21.798;2022-12-28T07:39:40;24.67;;;9.50;;
17832;SDS011;9041;49.718;21.798;2022-12-28T07:42:07;33.63;;;11.57;;
17832;SDS011;9041;49.718;21.798;2022-12-28T07:44:35;41.00;;;16.33;;
17832;SDS011;9041;49.718;21.798;2022-12-28T07:47:02;37.00;;;14.13;;
17832;SDS011;9041;49.718;21.798;2022-12-28T07:49:30;30.00;;;12.13;;
17832;SDS011;9041;49.718;21.798;2022-12-28T07:51:57;29.50;;;12.03;;
17832;SDS011;9041;49.718;21.798;2022-12-28T07:54:23;30.53;;;12.40;;
17832;SDS011;9041;49.718;21.798;2022-12-28T07:56:50;33.00;;;11.17;;
17832;SDS011;9041;49.718;21.798;2022-12-28T07:59:17;28.03;;;10.93;;
17832;SDS011;9041;49.718;21.798;2022-12-28T08:01:44;21.37;;;8.97;;
17832;SDS011;9041;49.718;21.798;2022-12-28T08:04:11;25.83;;;10.33;;
17832;SDS011;9041;49.718;21.798;2022-12-28T08:06:40;15.87;;;7.80;;
17832;SDS011;9041;49.718;21.798;2022-12-28T08:09:08;25.37;;;8.90;;
17832;SDS011;9041;49.718;21.798;2022-12-28T08:11:36;19.43;;;6.70;;
17832;SDS011;9041;49.718;21.798;2022-12-28T08:14:04;19.73;;;7.30;;
17832;SDS011;9041;49.718;21.798;2022-12-28T08:16:32;21.50;;;9.80;;
17832;SDS011;9041;49.718;21.798;2022-12-28T08:19:00;22.50;;;6.83;;
17832;SDS011;9041;49.718;21.798;2022-12-28T08:21:28;21.83;;;6.57;;
17832;SDS011;9041;49.718;21.798;2022-12-28T08:23:57;13.50;;;6.47;;
17832;SDS011;9041;49.718;21.798;2022-12-28T08:26:25;18.03;;;6.13;;
17832;SDS011;9041;49.718;21.798;2022-12-28T08:28:54;18.83;;;6.60;;
17832;SDS011;9041;49.718;21.798;2022-12-28T08:31:23;18.07;;;5.97;;
17832;SDS011;9041;49.718;21.798;2022-12-28T08:33:51;20.90;;;6.20;;
17832;SDS011;9041;49.718;21.798;2022-12-28T08:36:18;11.73;;;5.70;;
17832;SDS011;9041;49.718;21.798;2022-12-28T08:38:45;9.30;;;4.50;;
17832;SDS011;9041;49.718;21.798;2022-12-28T08:41:14;11.73;;;4.60;;
17832;SDS011;9041;49.718;21.798;2022-12-28T08:43:42;14.23;;;4.37;;
17832;SDS011;9041;49.718;21.798;2022-12-28T08:46:10;11.53;;;5.10;;
17832;SDS011;9041;49.718;21.798;2022-12-28T08:48:37;8.97;;;4.43;;
17832;SDS011;9041;49.718;21.798;2022-12-28T08:51:05;11.37;;;4.30;;
17832;SDS011;9041;49.718;21.798;2022-12-28T08:53:33;15.30;;;5.80;;
17832;SDS011;9041;49.718;21.798;2022-12-28T08:56:03;19.07;;;5.07;;
17832;SDS011;9041;49.718;21.798;2022-12-28T08:58:32;14.10;;;4.87;;
17832;SDS011;9041;49.718;21.798;2022-12-28T09:01:09;9.13;;;4.80;;
17832;SDS011;9041;49.718;21.798;2022-12-28T09:03:37;16.60;;;5.77;;
17832;SDS011;9041;49.718;21.798;2022-12-28T09:06:06;13.43;;;5.63;;
17832;SDS011;9041;49.718;21.798;2022-12-28T09:08:34;12.93;;;5.43;;
17832;SDS011;9041;49.718;21.798;2022-12-28T09:11:01;10.50;;;4.53;;
17832;SDS011;9041;49.718;21.798;2022-12-28T09:13:28;15.23;;;5.17;;
17832;SDS011;9041;49.718;21.798;2022-12-28T09:15:56;7.63;;;4.53;;
17832;SDS011;9041;49.718;21.798;2022-12-28T09:18:23;15.03;;;5.90;;
17832;SDS011;9041;49.718;21.798;2022-12-28T09:20:50;14.10;;;4.93;;
17832;SDS011;9041;49.718;21.798;2022-12-28T09:23:17;12.83;;;5.63;;
17832;SDS011;9041;49.718;21.798;2022-12-28T09:25:43;14.53;;;6.17;;
17832;SDS011;9041;49.718;21.798;2022-12-28T09:28:10;13.67;;;5.27;;
17832;SDS011;9041;49.718;21.798;2022-12-28T09:30:36;10.13;;;5.00;;
17832;SDS011;9041;49.718;21.798;2022-12-28T09:33:04;10.83;;;4.90;;
17832;SDS011;9041;49.718;21.798;2022-12-28T09:35:45;13.20;;;4.70;;
17832;SDS011;9041;49.718;21.798;2022-12-28T09:38:12;9.63;;;4.13;;
17832;SDS011;9041;49.718;21.798;2022-12-28T09:40:38;11.73;;;4.83;;
17832;SDS011;9041;49.718;21.798;2022-12-28T09:43:07;9.40;;;4.27;;
17832;SDS011;9041;49.718;21.798;2022-12-28T09:45:34;10.60;;;4.43;;
17832;SDS011;9041;49.718;21.798;2022-12-28T09:48:02;10.43;;;4.60;;
17832;SDS011;9041;49.718;21.798;2022-12-28T09:50:32;10.90;;;5.03;;
17832;SDS011;9041;49.718;21.798;2022-12-28T09:53:05;10.60;;;4.70;;
17832;SDS011;9041;49.718;21.798;2022-12-28T09:55:40;11.73;;;4.63;;
17832;SDS011;9041;49.718;21.798;2022-12-28T09:58:17;12.83;;;4.87;;
17832;SDS011;9041;49.718;21.798;2022-12-28T10:00:45;13.90;;;4.70;;
17832;SDS011;9041;49.718;21.798;2022-12-28T10:03:15;12.27;;;4.67;;
17832;SDS011;9041;49.718;21.798;2022-12-28T10:05:44;11.57;;;4.40;;
17832;SDS011;9041;49.718;21.798;2022-12-28T10:08:12;10.80;;;4.77;;
17832;SDS011;9041;49.718;21.798;2022-12-28T10:10:40;12.07;;;4.57;;
17832;SDS011;9041;49.718;21.798;2022-12-28T10:13:11;11.93;;;4.90;;
17832;SDS011;9041;49.718;21.798;2022-12-28T10:15:40;6.93;;;4.00;;
17832;SDS011;9041;49.718;21.798;2022-12-28T10:18:07;9.73;;;4.43;;
17832;SDS011;9041;49.718;21.798;2022-12-28T10:20:35;12.73;;;4.90;;
17832;SDS011;9041;49.718;21.798;2022-12-28T10:23:02;13.30;;;5.07;;
17832;SDS011;9041;49.718;21.798;2022-12-28T10:25:30;11.20;;;4.90;;
17832;SDS011;9041;49.718;21.798;2022-12-28T10:27:58;12.50;;;4.93;;
17832;SDS011;9041;49.718;21.798;2022-12-28T10:30:26;9.07;;;4.40;;
17832;SDS011;9041;49.718;21.798;2022-12-28T10:32:54;9.27;;;4.37;;
17832;SDS011;9041;49.718;21.798;2022-12-28T10:35:23;15.73;;;5.70;;
17832;SDS011;9041;49.718;21.798;2022-12-28T10:37:52;12.50;;;5.43;;
17832;SDS011;9041;49.718;21.798;2022-12-28T10:40:27;14.90;;;5.40;;
17832;SDS011;9041;49.718;21.798;2022-12-28T10:42:59;9.33;;;4.90;;
17832;SDS011;9041;49.718;21.798;2022-12-28T10:45:31;11.00;;;4.90;;
17832;SDS011;9041;49.718;21.798;2022-12-28T10:48:00;11.00;;;5.23;;
17832;SDS011;9041;49.718;21.798;2022-12-28T10:50:40;13.40;;;5.97;;
17832;SDS011;9041;49.718;21.798;2022-12-28T10:53:19;17.73;;;6.20;;
17832;SDS011;9041;49.718;21.798;2022-12-28T10:55:51;12.13;;;5.43;;
17832;SDS011;9041;49.718;21.798;2022-12-28T10:58:29;14.80;;;6.03;;
17832;SDS011;9041;49.718;21.798;2022-12-28T11:00:56;10.87;;;4.97;;
17832;SDS011;9041;49.718;21.798;2022-12-28T11:03:24;16.47;;;6.77;;
17832;SDS011;9041;49.718;21.798;2022-12-28T11:06:09;15.67;;;5.97;;
17832;SDS011;9041;49.718;21.798;2022-12-28T11:08:39;9.43;;;4.97;;
17832;SDS011;9041;49.718;21.798;2022-12-28T11:11:14;10.00;;;4.60;;
17832;SDS011;9041;49.718;21.798;2022-12-28T11:13:43;9.47;;;4.30;;
17832;SDS011;9041;49.718;21.798;2022-12-28T11:16:11;8.23;;;4.57;;
17832;SDS011;9041;49.718;21.798;2022-12-28T11:18:38;13.87;;;5.47;;
17832;SDS011;9041;49.718;21.798;2022-12-28T11:21:08;9.27;;;5.03;;
17832;SDS011;9041;49.718;21.798;2022-12-28T11:23:36;10.50;;;5.20;;
17832;SDS011;9041;49.718;21.798;2022-12-28T11:26:04;11.70;;;4.70;;
17832;SDS011;9041;49.718;21.798;2022-12-28T11:28:35;10.40;;;4.80;;
17832;SDS011;9041;49.718;21.798;2022-12-28T11:31:02;11.17;;;5.43;;
17832;SDS011;9041;49.718;21.798;2022-12-28T11:33:32;9.93;;;4.67;;
17832;SDS011;9041;49.718;21.798;2022-12-28T11:36:03;12.83;;;4.87;;
17832;SDS011;9041;49.718;21.798;2022-12-28T11:38:36;13.33;;;5.63;;
17832;SDS011;9041;49.718;21.798;2022-12-28T11:41:07;11.93;;;5.00;;
17832;SDS011;9041;49.718;21.798;2022-12-28T11:43:39;9.60;;;5.27;;
17832;SDS011;9041;49.718;21.798;2022-12-28T11:46:37;10.97;;;4.50;;
17832;SDS011;9041;49.718;21.798;2022-12-28T11:49:20;10.23;;;4.37;;
17832;SDS011;9041;49.718;21.798;2022-12-28T12:01:10;16.43;;;5.47;;
17832;SDS011;9041;49.718;21.798;2022-12-28T12:09:39;20.33;;;7.57;;
17832;SDS011;9041;49.718;21.798;2022-12-28T12:15:01;12.17;;;5.93;;
17832;SDS011;9041;49.718;21.798;2022-12-28T12:17:34;28.60;;;11.17;;
17832;SDS011;9041;49.718;21.798;2022-12-28T12:20:06;29.23;;;10.13;;
17832;SDS011;9041;49.718;21.798;2022-12-28T12:22:50;27.53;;;9.77;;
17832;SDS011;9041;49.718;21.798;2022-12-28T12:25:21;34.67;;;12.20;;
17832;SDS011;9041;49.718;21.798;2022-12-28T12:27:51;36.90;;;10.60;;
17832;SDS011;9041;49.718;21.798;2022-12-28T12:30:22;19.60;;;7.70;;
17832;SDS011;9041;49.718;21.798;2022-12-28T12:32:50;12.60;;;5.77;;
17832;SDS011;9041;49.718;21.798;2022-12-28T12:35:19;21.50;;;8.73;;
17832;SDS011;9041;49.718;21.798;2022-12-28T12:37:48;12.07;;;5.47;;
17832;SDS011;9041;49.718;21.798;2022-12-28T12:40:24;13.00;;;5.83;;
17832;SDS011;9041;49.718;21.798;2022-12-28T12:43:19;69.00;;;23.53;;
17832;SDS011;9041;49.718;21.798;2022-12-28T12:45:54;39.77;;;13.57;;
17832;SDS011;9041;49.718;21.798;2022-12-28T12:48:30;12.80;;;6.27;;
17832;SDS011;9041;49.718;21.798;2022-12-28T12:51:07;76.90;;;28.47;;
17832;SDS011;9041;49.718;21.798;2022-12-28T12:56:42;73.03;;;29.13;;
17832;SDS011;9041;49.718;21.798;2022-12-28T13:02:22;31.93;;;12.50;;
17832;SDS011;9041;49.718;21.798;2022-12-28T13:04:56;25.30;;;10.33;;
17832;SDS011;9041;49.718;21.798;2022-12-28T13:07:24;24.30;;;11.63;;
17832;SDS011;9041;49.718;21.798;2022-12-28T13:09:52;24.57;;;10.70;;
17832;SDS011;9041;49.718;21.798;2022-12-28T13:12:20;13.57;;;7.90;;
17832;SDS011;9041;49.718;21.798;2022-12-28T13:14:47;17.53;;;7.20;;
17832;SDS011;9041;49.718;21.798;2022-12-28T13:17:17;19.63;;;8.10;;
17832;SDS011;9041;49.718;21.798;2022-12-28T13:19:47;14.33;;;6.80;;
17832;SDS011;9041;49.718;21.798;2022-12-28T13:22:26;16.70;;;6.63;;
17832;SDS011;9041;49.718;21.798;2022-12-28T13:24:54;16.67;;;7.17;;
17832;SDS011;9041;49.718;21.798;2022-12-28T13:27:23;15.63;;;6.63;;
17832;SDS011;9041;49.718;21.798;2022-12-28T13:29:52;17.33;;;8.00;;
17832;SDS011;9041;49.718;21.798;2022-12-28T13:32:24;15.67;;;6.63;;
17832;SDS011;9041;49.718;21.798;2022-12-28T13:34:52;14.73;;;7.53;;
17832;SDS011;9041;49.718;21.798;2022-12-28T13:37:19;15.27;;;6.57;;
17832;SDS011;9041;49.718;21.798;2022-12-28T13:39:48;13.73;;;6.50;;
17832;SDS011;9041;49.718;21.798;2022-12-28T13:42:15;13.93;;;7.13;;
17832;SDS011;9041;49.718;21.798;2022-12-28T13:44:43;14.57;;;6.17;;
17832;SDS011;9041;49.718;21.798;2022-12-28T13:47:14;11.50;;;5.40;;
17832;SDS011;9041;49.718;21.798;2022-12-28T13:49:45;12.50;;;5.37;;
17832;SDS011;9041;49.718;21.798;2022-12-28T13:52:18;13.23;;;6.23;;
17832;SDS011;9041;49.718;21.798;2022-12-28T13:54:47;12.40;;;5.77;;
17832;SDS011;9041;49.718;21.798;2022-12-28T13:57:16;27.13;;;10.70;;
17832;SDS011;9041;49.718;21.798;2022-12-28T13:59:44;16.70;;;8.37;;
17832;SDS011;9041;49.718;21.798;2022-12-28T14:02:12;19.13;;;9.07;;
17832;SDS011;9041;49.718;21.798;2022-12-28T14:04:41;16.20;;;7.83;;
17832;SDS011;9041;49.718;21.798;2022-12-28T14:07:09;15.87;;;7.53;;
17832;SDS011;9041;49.718;21.798;2022-12-28T14:09:38;16.53;;;6.97;;
17832;SDS011;9041;49.718;21.798;2022-12-28T14:12:07;14.30;;;6.17;;
17832;SDS011;9041;49.718;21.798;2022-12-28T14:14:34;14.27;;;6.10;;
17832;SDS011;9041;49.718;21.798;2022-12-28T14:17:01;16.10;;;6.87;;
17832;SDS011;9041;49.718;21.798;2022-12-28T14:19:28;22.30;;;7.37;;
17832;SDS011;9041;49.718;21.798;2022-12-28T14:21:55;16.07;;;8.00;;
17832;SDS011;9041;49.718;21.798;2022-12-28T14:24:22;23.83;;;7.53;;
17832;SDS011;9041;49.718;21.798;2022-12-28T14:26:51;22.90;;;7.87;;
17832;SDS011;9041;49.718;21.798;2022-12-28T14:29:23;16.87;;;7.07;;
17832;SDS011;9041;49.718;21.798;2022-12-28T14:31:53;13.63;;;6.37;;
17832;SDS011;9041;49.718;21.798;2022-12-28T14:34:22;19.87;;;7.53;;
17832;SDS011;9041;49.718;21.798;2022-12-28T14:36:51;18.97;;;6.93;;
17832;SDS011;9041;49.718;21.798;2022-12-28T14:39:28;21.10;;;8.43;;
17832;SDS011;9041;49.718;21.798;2022-12-28T14:41:58;15.50;;;6.10;;
17832;SDS011;9041;49.718;21.798;2022-12-28T14:44:27;14.57;;;8.40;;
17832;SDS011;9041;49.718;21.798;2022-12-28T14:46:55;18.13;;;7.57;;
17832;SDS011;9041;49.718;21.798;2022-12-28T14:49:23;38.33;;;15.37;;
17832;SDS011;9041;49.718;21.798;2022-12-28T14:52:21;23.27;;;9.23;;
17832;SDS011;9041;49.718;21.798;2022-12-28T14:55:26;17.70;;;7.80;;
17832;SDS011;9041;49.718;21.798;2022-12-28T14:58:00;25.73;;;9.73;;
17832;SDS011;9041;49.718;21.798;2022-12-28T15:00:29;23.13;;;10.47;;
17832;SDS011;9041;49.718;21.798;2022-12-28T15:03:10;23.57;;;11.03;;
17832;SDS011;9041;49.718;21.798;2022-12-28T15:05:47;22.17;;;8.97;;
17832;SDS011;9041;49.718;21.798;2022-12-28T15:08:15;30.27;;;13.10;;
17832;SDS011;9041;49.718;21.798;2022-12-28T15:10:44;32.07;;;13.13;;
17832;SDS011;9041;49.718;21.798;2022-12-28T15:13:14;23.43;;;9.97;;
17832;SDS011;9041;49.718;21.798;2022-12-28T15:15:41;54.00;;;17.50;;
17832;SDS011;9041;49.718;21.798;2022-12-28T15:18:08;34.47;;;12.80;;
17832;SDS011;9041;49.718;21.798;2022-12-28T15:20:35;22.50;;;8.77;;
17832;SDS011;9041;49.718;21.798;2022-12-28T15:23:02;72.37;;;24.60;;